sensor_id;sensor_type;location;lat;lon;timestamp;pressure;altitude;pressure_sealevel;temperature;humidity
54816;BME280;40715;55.752;37.884;2024-01-06T00:00:17;98468.28;;;29.01;20.06
54816;BME280;40715;55.752;37.884;2024-01-06T00:02:44;98468.66;;;28.98;19.94
54816;BME280;40715;55.752;37.884;2024-01-06T00:05:11;98474.00;;;29.06;20.00
54816;BME280;40715;55.752;37.884;2024-01-06T00:07:38;98473.88;;;29.22;19.93
54816;BME280;40715;55.752;37.884;2024-01-06T00:10:06;98471.91;;;29.39;19.49
54816;BME280;40715;55.752;37.884;2024-01-06T00:12:33;98472.22;;;29.59;19.43
54816;BME280;40715;55.752;37.884;2024-01-06T00:15:00;98477.69;;;29.74;19.13
54816;BME280;40715;55.752;37.884;2024-01-06T00:17:29;98464.69;;;29.85;19.39
54816;BME280;40715;55.752;37.884;2024-01-06T00:19:56;98470.69;;;29.95;18.98
54816;BME280;40715;55.752;37.884;2024-01-06T00:22:23;98462.53;;;29.95;18.90
54816;BME280;40715;55.752;37.884;2024-01-06T00:24:50;98471.72;;;29.94;18.78
54816;BME280;40715;55.752;37.884;2024-01-06T00:27:17;98463.00;;;29.84;18.73
54816;BME280;40715;55.752;37.884;2024-01-06T00:29:44;98454.47;;;29.72;18.68
54816;BME280;40715;55.752;37.884;2024-01-06T00:32:11;98456.41;;;29.63;18.93
54816;BME280;40715;55.752;37.884;2024-01-06T00:34:38;98458.00;;;29.57;19.11
54816;BME280;40715;55.752;37.884;2024-01-06T00:37:05;98458.28;;;29.48;19.04
54816;BME280;40715;55.752;37.884;2024-01-06T00:39:32;98453.38;;;29.43;19.05
54816;BME280;40715;55.752;37.884;2024-01-06T00:41:59;98448.22;;;29.33;19.18
54816;BME280;40715;55.752;37.884;2024-01-06T00:44:26;98448.94;;;29.27;19.28
54816;BME280;40715;55.752;37.884;2024-01-06T00:46:53;98455.25;;;29.19;19.20
54816;BME280;40715;55.752;37.884;2024-01-06T00:49:20;98450.75;;;29.12;19.18
54816;BME280;40715;55.752;37.884;2024-01-06T00:51:47;98456.16;;;29.12;19.23
54816;BME280;40715;55.752;37.884;2024-01-06T00:54:14;98456.28;;;29.18;19.33
54816;BME280;40715;55.752;37.884;2024-01-06T00:56:41;98466.53;;;29.31;19.11
54816;BME280;40715;55.752;37.884;2024-01-06T00:59:09;98453.22;;;29.44;19.17
54816;BME280;40715;55.752;37.884;2024-01-06T01:01:36;98464.56;;;29.63;19.10
54816;BME280;40715;55.752;37.884;2024-01-06T01:04:03;98468.28;;;29.77;18.75
54816;BME280;40715;55.752;37.884;2024-01-06T01:06:31;98459.00;;;29.94;18.53
54816;BME280;40715;55.752;37.884;2024-01-06T01:08:58;98465.25;;;30.10;18.50
54816;BME280;40715;55.752;37.884;2024-01-06T01:11:25;98471.06;;;30.22;18.49
54816;BME280;40715;55.752;37.884;2024-01-06T01:13:52;98468.25;;;30.30;18.29
54816;BME280;40715;55.752;37.884;2024-01-06T01:16:19;98472.25;;;30.34;18.04
54816;BME280;40715;55.752;37.884;2024-01-06T01:18:46;98465.13;;;30.33;18.22
54816;BME280;40715;55.752;37.884;2024-01-06T01:21:14;98469.16;;;30.22;17.88
54816;BME280;40715;55.752;37.884;2024-01-06T01:23:42;98473.56;;;30.08;18.26
54816;BME280;40715;55.752;37.884;2024-01-06T01:26:08;98478.44;;;29.98;18.04
54816;BME280;40715;55.752;37.884;2024-01-06T01:28:35;98478.09;;;29.86;18.21
54816;BME280;40715;55.752;37.884;2024-01-06T01:31:02;98478.13;;;29.78;18.27
54816;BME280;40715;55.752;37.884;2024-01-06T01:33:29;98483.84;;;29.68;18.55
54816;BME280;40715;55.752;37.884;2024-01-06T01:35:56;98468.66;;;29.59;18.52
54816;BME280;40715;55.752;37.884;2024-01-06T01:38:26;98466.69;;;29.53;18.52
54816;BME280;40715;55.752;37.884;2024-01-06T01:40:53;98464.22;;;29.43;18.49
54816;BME280;40715;55.752;37.884;2024-01-06T01:43:20;98461.78;;;29.33;18.57
54816;BME280;40715;55.752;37.884;2024-01-06T01:45:53;98464.00;;;29.30;18.85
54816;BME280;40715;55.752;37.884;2024-01-06T01:48:23;98461.69;;;29.26;18.60
54816;BME280;40715;55.752;37.884;2024-01-06T01:50:53;98460.75;;;29.34;18.69
54816;BME280;40715;55.752;37.884;2024-01-06T01:53:20;98454.69;;;29.47;18.50
54816;BME280;40715;55.752;37.884;2024-01-06T01:55:48;98457.44;;;29.62;18.60
54816;BME280;40715;55.752;37.884;2024-01-06T01:58:16;98466.81;;;29.74;18.36
54816;BME280;40715;55.752;37.884;2024-01-06T02:00:43;98453.09;;;29.91;18.00
54816;BME280;40715;55.752;37.884;2024-01-06T02:03:12;98451.59;;;30.03;18.01
54816;BME280;40715;55.752;37.884;2024-01-06T02:05:39;98452.78;;;30.16;17.72
54816;BME280;40715;55.752;37.884;2024-01-06T02:08:06;98452.50;;;30.25;17.81
54816;BME280;40715;55.752;37.884;2024-01-06T02:10:34;98450.88;;;30.31;17.46
54816;BME280;40715;55.752;37.884;2024-01-06T02:13:11;98437.59;;;30.36;17.44
54816;BME280;40715;55.752;37.884;2024-01-06T02:15:38;98446.94;;;30.34;17.68
54816;BME280;40715;55.752;37.884;2024-01-06T02:18:06;98441.56;;;30.19;17.48
54816;BME280;40715;55.752;37.884;2024-01-06T02:20:34;98446.81;;;30.05;17.56
54816;BME280;40715;55.752;37.884;2024-01-06T02:23:01;98447.47;;;29.92;17.79
54816;BME280;40715;55.752;37.884;2024-01-06T02:25:28;98442.47;;;29.81;17.88
54816;BME280;40715;55.752;37.884;2024-01-06T02:27:56;98434.59;;;29.71;17.99
54816;BME280;40715;55.752;37.884;2024-01-06T02:30:23;98442.00;;;29.63;18.14
54816;BME280;40715;55.752;37.884;2024-01-06T02:32:50;98439.91;;;29.50;18.01
54816;BME280;40715;55.752;37.884;2024-01-06T02:35:17;98441.50;;;29.44;18.07
54816;BME280;40715;55.752;37.884;2024-01-06T02:37:44;98442.25;;;29.38;18.11
54816;BME280;40715;55.752;37.884;2024-01-06T02:40:11;98449.06;;;29.34;18.08
54816;BME280;40715;55.752;37.884;2024-01-06T02:42:38;98449.38;;;29.39;18.06
54816;BME280;40715;55.752;37.884;2024-01-06T02:45:07;98445.06;;;29.44;18.07
54816;BME280;40715;55.752;37.884;2024-01-06T02:47:34;98447.78;;;29.59;18.13
54816;BME280;40715;55.752;37.884;2024-01-06T02:50:01;98450.34;;;29.76;17.85
54816;BME280;40715;55.752;37.884;2024-01-06T02:52:30;98453.56;;;29.94;17.90
54816;BME280;40715;55.752;37.884;2024-01-06T02:54:57;98452.91;;;30.07;17.67
54816;BME280;40715;55.752;37.884;2024-01-06T02:57:24;98456.34;;;30.16;17.35
54816;BME280;40715;55.752;37.884;2024-01-06T02:59:51;98458.59;;;30.27;17.54
54816;BME280;40715;55.752;37.884;2024-01-06T03:02:18;98458.66;;;30.34;17.36
54816;BME280;40715;55.752;37.884;2024-01-06T03:04:45;98462.69;;;30.38;17.30
54816;BME280;40715;55.752;37.884;2024-01-06T03:07:12;98461.00;;;30.37;17.16
54816;BME280;40715;55.752;37.884;2024-01-06T03:09:39;98464.75;;;30.36;17.17
54816;BME280;40715;55.752;37.884;2024-01-06T03:12:06;98455.59;;;30.22;17.07
54816;BME280;40715;55.752;37.884;2024-01-06T03:14:34;98460.00;;;30.08;17.55
54816;BME280;40715;55.752;37.884;2024-01-06T03:17:02;98455.72;;;29.99;17.51
54816;BME280;40715;55.752;37.884;2024-01-06T03:19:30;98455.34;;;29.87;17.61
54816;BME280;40715;55.752;37.884;2024-01-06T03:21:57;98446.22;;;29.80;17.49
54816;BME280;40715;55.752;37.884;2024-01-06T03:24:26;98443.50;;;29.65;17.86
54816;BME280;40715;55.752;37.884;2024-01-06T03:26:53;98446.28;;;29.57;17.68
54816;BME280;40715;55.752;37.884;2024-01-06T03:29:20;98444.50;;;29.49;17.76
54816;BME280;40715;55.752;37.884;2024-01-06T03:31:47;98437.47;;;29.40;17.80
54816;BME280;40715;55.752;37.884;2024-01-06T03:34:14;98435.69;;;29.32;18.04
54816;BME280;40715;55.752;37.884;2024-01-06T03:36:42;98437.19;;;29.35;17.85
54816;BME280;40715;55.752;37.884;2024-01-06T03:39:09;98441.69;;;29.42;17.95
54816;BME280;40715;55.752;37.884;2024-01-06T03:41:37;98438.72;;;29.52;18.01
54816;BME280;40715;55.752;37.884;2024-01-06T03:44:04;98452.94;;;29.69;17.70
54816;BME280;40715;55.752;37.884;2024-01-06T03:46:33;98441.63;;;29.81;17.65
54816;BME280;40715;55.752;37.884;2024-01-06T03:49:00;98456.34;;;30.01;17.67
54816;BME280;40715;55.752;37.884;2024-01-06T03:51:27;98455.22;;;30.10;17.48
54816;BME280;40715;55.752;37.884;2024-01-06T03:53:55;98453.53;;;30.24;17.46
54816;BME280;40715;55.752;37.884;2024-01-06T03:56:22;98456.59;;;30.36;17.03
54816;BME280;40715;55.752;37.884;2024-01-06T03:58:49;98456.22;;;30.39;17.26
54816;BME280;40715;55.752;37.884;2024-01-06T04:01:16;98454.00;;;30.43;16.92
54816;BME280;40715;55.752;37.884;2024-01-06T04:03:43;98450.78;;;30.39;16.87
54816;BME280;40715;55.752;37.884;2024-01-06T04:06:10;98447.34;;;30.30;16.86
54816;BME280;40715;55.752;37.884;2024-01-06T04:08:38;98463.47;;;30.17;17.07
54816;BME280;40715;55.752;37.884;2024-01-06T04:11:05;98467.50;;;30.06;17.25
54816;BME280;40715;55.752;37.884;2024-01-06T04:13:32;98473.59;;;29.93;17.33
54816;BME280;40715;55.752;37.884;2024-01-06T04:15:59;98465.25;;;29.80;17.47
54816;BME280;40715;55.752;37.884;2024-01-06T04:18:26;98459.03;;;29.71;17.51
54816;BME280;40715;55.752;37.884;2024-01-06T04:20:53;98453.03;;;29.61;17.54
54816;BME280;40715;55.752;37.884;2024-01-06T04:23:20;98451.63;;;29.50;17.69
54816;BME280;40715;55.752;37.884;2024-01-06T04:25:51;98463.38;;;29.42;17.56
54816;BME280;40715;55.752;37.884;2024-01-06T04:28:18;98469.56;;;29.36;17.60
54816;BME280;40715;55.752;37.884;2024-01-06T04:30:45;98466.72;;;29.30;17.73
54816;BME280;40715;55.752;37.884;2024-01-06T04:33:12;98459.59;;;29.29;17.71
54816;BME280;40715;55.752;37.884;2024-01-06T04:35:39;98460.41;;;29.37;17.99
54816;BME280;40715;55.752;37.884;2024-01-06T04:38:06;98460.97;;;29.48;17.79
54816;BME280;40715;55.752;37.884;2024-01-06T04:40:33;98462.69;;;29.64;17.58
54816;BME280;40715;55.752;37.884;2024-01-06T04:43:00;98466.25;;;29.79;17.52
54816;BME280;40715;55.752;37.884;2024-01-06T04:45:27;98465.75;;;29.99;17.53
54816;BME280;40715;55.752;37.884;2024-01-06T04:47:54;98467.41;;;30.15;17.49
54816;BME280;40715;55.752;37.884;2024-01-06T04:50:21;98471.97;;;30.29;17.39
54816;BME280;40715;55.752;37.884;2024-01-06T04:52:48;98467.09;;;30.39;16.97
54816;BME280;40715;55.752;37.884;2024-01-06T04:55:15;98462.41;;;30.48;17.11
54816;BME280;40715;55.752;37.884;2024-01-06T04:57:42;98462.88;;;30.52;16.90
54816;BME280;40715;55.752;37.884;2024-01-06T05:00:09;98464.53;;;30.53;16.69
54816;BME280;40715;55.752;37.884;2024-01-06T05:02:37;98470.31;;;30.43;16.60
54816;BME280;40715;55.752;37.884;2024-01-06T05:05:04;98470.28;;;30.28;17.14
54816;BME280;40715;55.752;37.884;2024-01-06T05:07:31;98476.19;;;30.17;17.24
54816;BME280;40715;55.752;37.884;2024-01-06T05:09:58;98471.63;;;30.02;17.25
54816;BME280;40715;55.752;37.884;2024-01-06T05:12:25;98476.69;;;29.90;17.28
54816;BME280;40715;55.752;37.884;2024-01-06T05:14:52;98475.91;;;29.82;17.34
54816;BME280;40715;55.752;37.884;2024-01-06T05:17:19;98480.75;;;29.71;17.58
54816;BME280;40715;55.752;37.884;2024-01-06T05:19:46;98482.50;;;29.64;17.53
54816;BME280;40715;55.752;37.884;2024-01-06T05:22:13;98477.72;;;29.51;17.66
54816;BME280;40715;55.752;37.884;2024-01-06T05:24:40;98489.97;;;29.47;17.72
54816;BME280;40715;55.752;37.884;2024-01-06T05:27:07;98482.94;;;29.38;17.84
54816;BME280;40715;55.752;37.884;2024-01-06T05:29:36;98483.31;;;29.35;17.77
54816;BME280;40715;55.752;37.884;2024-01-06T05:32:03;98491.91;;;29.38;17.82
54816;BME280;40715;55.752;37.884;2024-01-06T05:34:30;98494.00;;;29.51;17.88
54816;BME280;40715;55.752;37.884;2024-01-06T05:36:57;98494.75;;;29.60;17.81
54816;BME280;40715;55.752;37.884;2024-01-06T05:39:24;98492.91;;;29.75;17.64
54816;BME280;40715;55.752;37.884;2024-01-06T05:41:51;98490.91;;;29.92;17.55
54816;BME280;40715;55.752;37.884;2024-01-06T05:44:18;98496.69;;;30.04;17.71
54816;BME280;40715;55.752;37.884;2024-01-06T05:46:45;98499.44;;;30.19;17.48
54816;BME280;40715;55.752;37.884;2024-01-06T05:49:13;98500.66;;;30.32;17.19
54816;BME280;40715;55.752;37.884;2024-01-06T05:51:49;98502.06;;;30.42;17.17
54816;BME280;40715;55.752;37.884;2024-01-06T05:54:16;98497.94;;;30.46;16.90
54816;BME280;40715;55.752;37.884;2024-01-06T05:56:43;98496.78;;;30.41;17.18
54816;BME280;40715;55.752;37.884;2024-01-06T05:59:10;98496.88;;;30.33;17.06
54816;BME280;40715;55.752;37.884;2024-01-06T06:01:37;98504.47;;;30.22;17.15
54816;BME280;40715;55.752;37.884;2024-01-06T06:04:04;98496.34;;;30.07;17.29
54816;BME280;40715;55.752;37.884;2024-01-06T06:06:31;98500.00;;;30.00;17.37
54816;BME280;40715;55.752;37.884;2024-01-06T06:08:58;98494.19;;;29.88;17.39
54816;BME280;40715;55.752;37.884;2024-01-06T06:11:25;98489.81;;;29.78;17.62
54816;BME280;40715;55.752;37.884;2024-01-06T06:13:51;98488.06;;;29.71;17.51
54816;BME280;40715;55.752;37.884;2024-01-06T06:16:18;98494.56;;;29.61;17.44
54816;BME280;40715;55.752;37.884;2024-01-06T06:18:45;98501.13;;;29.52;17.63
54816;BME280;40715;55.752;37.884;2024-01-06T06:21:13;98496.97;;;29.41;17.93
54816;BME280;40715;55.752;37.884;2024-01-06T06:23:40;98488.06;;;29.33;17.90
54816;BME280;40715;55.752;37.884;2024-01-06T06:26:07;98497.59;;;29.29;17.91
54816;BME280;40715;55.752;37.884;2024-01-06T06:28:35;98504.16;;;29.34;17.91
54816;BME280;40715;55.752;37.884;2024-01-06T06:31:03;98505.59;;;29.45;17.78
54816;BME280;40715;55.752;37.884;2024-01-06T06:33:30;98515.63;;;29.59;17.67
54816;BME280;40715;55.752;37.884;2024-01-06T06:35:57;98517.72;;;29.72;17.60
54816;BME280;40715;55.752;37.884;2024-01-06T06:38:27;98520.50;;;29.87;17.88
54816;BME280;40715;55.752;37.884;2024-01-06T06:40:54;98521.34;;;30.03;17.75
54816;BME280;40715;55.752;37.884;2024-01-06T06:43:22;98520.03;;;30.13;17.46
54816;BME280;40715;55.752;37.884;2024-01-06T06:45:49;98514.53;;;30.22;17.35
54816;BME280;40715;55.752;37.884;2024-01-06T06:48:16;98522.38;;;30.32;17.30
54816;BME280;40715;55.752;37.884;2024-01-06T06:50:43;98525.56;;;30.35;17.06
54816;BME280;40715;55.752;37.884;2024-01-06T06:53:10;98526.66;;;30.41;17.03
54816;BME280;40715;55.752;37.884;2024-01-06T06:55:37;98530.59;;;30.38;16.85
54816;BME280;40715;55.752;37.884;2024-01-06T06:58:04;98525.28;;;30.30;17.01
54816;BME280;40715;55.752;37.884;2024-01-06T07:00:32;98543.53;;;30.21;17.32
54816;BME280;40715;55.752;37.884;2024-01-06T07:03:00;98536.03;;;30.08;17.63
54816;BME280;40715;55.752;37.884;2024-01-06T07:05:27;98542.59;;;29.99;17.78
54816;BME280;40715;55.752;37.884;2024-01-06T07:07:54;98536.59;;;29.89;17.75
54816;BME280;40715;55.752;37.884;2024-01-06T07:10:21;98537.66;;;29.79;17.91
54816;BME280;40715;55.752;37.884;2024-01-06T07:12:48;98532.69;;;29.68;17.91
54816;BME280;40715;55.752;37.884;2024-01-06T07:15:15;98538.38;;;29.58;18.14
54816;BME280;40715;55.752;37.884;2024-01-06T07:17:42;98543.22;;;29.48;18.01
54816;BME280;40715;55.752;37.884;2024-01-06T07:20:09;98538.03;;;29.38;18.32
54816;BME280;40715;55.752;37.884;2024-01-06T07:22:36;98544.00;;;29.34;18.38
54816;BME280;40715;55.752;37.884;2024-01-06T07:25:04;98541.28;;;29.34;18.31
54816;BME280;40715;55.752;37.884;2024-01-06T07:27:31;98534.75;;;29.43;18.37
54816;BME280;40715;55.752;37.884;2024-01-06T07:29:58;98539.28;;;29.51;18.35
54816;BME280;40715;55.752;37.884;2024-01-06T07:32:25;98547.28;;;29.67;18.29
54816;BME280;40715;55.752;37.884;2024-01-06T07:34:52;98544.97;;;29.79;18.37
54816;BME280;40715;55.752;37.884;2024-01-06T07:37:19;98546.06;;;29.93;18.39
54816;BME280;40715;55.752;37.884;2024-01-06T07:39:46;98546.44;;;30.05;18.25
54816;BME280;40715;55.752;37.884;2024-01-06T07:42:13;98544.28;;;30.15;17.96
54816;BME280;40715;55.752;37.884;2024-01-06T07:44:40;98548.78;;;30.23;18.14
54816;BME280;40715;55.752;37.884;2024-01-06T07:47:06;98532.13;;;30.26;18.01
54816;BME280;40715;55.752;37.884;2024-01-06T07:49:33;98543.44;;;30.29;17.96
54816;BME280;40715;55.752;37.884;2024-01-06T07:52:00;98543.34;;;30.23;17.96
54816;BME280;40715;55.752;37.884;2024-01-06T07:54:27;98550.41;;;30.17;18.11
54816;BME280;40715;55.752;37.884;2024-01-06T07:56:55;98547.78;;;30.09;18.27
54816;BME280;40715;55.752;37.884;2024-01-06T07:59:22;98556.00;;;30.01;18.11
54816;BME280;40715;55.752;37.884;2024-01-06T08:01:49;98551.50;;;29.93;18.18
54816;BME280;40715;55.752;37.884;2024-01-06T08:04:16;98547.31;;;29.82;18.13
54816;BME280;40715;55.752;37.884;2024-01-06T08:06:43;98544.97;;;29.79;18.17
54816;BME280;40715;55.752;37.884;2024-01-06T08:09:10;98550.28;;;29.72;18.31
54816;BME280;40715;55.752;37.884;2024-01-06T08:11:37;98551.03;;;29.66;17.98
54816;BME280;40715;55.752;37.884;2024-01-06T08:14:03;98551.09;;;29.58;18.17
54816;BME280;40715;55.752;37.884;2024-01-06T08:16:30;98537.91;;;29.55;18.23
54816;BME280;40715;55.752;37.884;2024-01-06T08:18:58;98548.69;;;29.63;18.20
54816;BME280;40715;55.752;37.884;2024-01-06T08:21:26;98537.41;;;29.74;18.23
54816;BME280;40715;55.752;37.884;2024-01-06T08:23:53;98529.66;;;29.86;18.22
54816;BME280;40715;55.752;37.884;2024-01-06T08:26:20;98540.72;;;30.00;18.12
54816;BME280;40715;55.752;37.884;2024-01-06T08:28:47;98523.97;;;30.11;18.22
54816;BME280;40715;55.752;37.884;2024-01-06T08:31:14;98528.84;;;30.30;17.99
54816;BME280;40715;55.752;37.884;2024-01-06T08:33:41;98533.81;;;30.42;17.61
54816;BME280;40715;55.752;37.884;2024-01-06T08:36:08;98529.59;;;30.54;17.74
54816;BME280;40715;55.752;37.884;2024-01-06T08:38:36;98515.06;;;30.62;17.38
54816;BME280;40715;55.752;37.884;2024-01-06T08:41:03;98513.25;;;30.69;17.44
54816;BME280;40715;55.752;37.884;2024-01-06T08:43:30;98513.91;;;30.71;17.37
54816;BME280;40715;55.752;37.884;2024-01-06T08:45:57;98514.47;;;30.67;17.53
54816;BME280;40715;55.752;37.884;2024-01-06T08:48:24;98507.19;;;30.52;17.41
54816;BME280;40715;55.752;37.884;2024-01-06T08:50:51;98505.44;;;30.44;17.71
54816;BME280;40715;55.752;37.884;2024-01-06T08:53:18;98507.75;;;30.33;17.97
54816;BME280;40715;55.752;37.884;2024-01-06T08:55:45;98503.16;;;30.18;18.19
54816;BME280;40715;55.752;37.884;2024-01-06T08:58:13;98507.28;;;30.14;18.31
54816;BME280;40715;55.752;37.884;2024-01-06T09:00:39;98510.13;;;30.06;18.27
54816;BME280;40715;55.752;37.884;2024-01-06T09:03:06;98506.81;;;29.95;18.35
54816;BME280;40715;55.752;37.884;2024-01-06T09:05:34;98514.03;;;29.88;18.25
54816;BME280;40715;55.752;37.884;2024-01-06T09:08:01;98504.25;;;29.79;18.54
54816;BME280;40715;55.752;37.884;2024-01-06T09:10:28;98521.28;;;29.73;18.44
54816;BME280;40715;55.752;37.884;2024-01-06T09:12:56;98517.59;;;29.66;18.43
54816;BME280;40715;55.752;37.884;2024-01-06T09:15:23;98531.66;;;29.69;18.16
54816;BME280;40715;55.752;37.884;2024-01-06T09:17:50;98533.81;;;29.74;18.15
54816;BME280;40715;55.752;37.884;2024-01-06T09:20:18;98531.72;;;29.84;18.45
54816;BME280;40715;55.752;37.884;2024-01-06T09:22:49;98529.47;;;30.03;18.54
54816;BME280;40715;55.752;37.884;2024-01-06T09:25:16;98522.38;;;30.17;18.28
54816;BME280;40715;55.752;37.884;2024-01-06T09:27:44;98523.41;;;30.30;18.11
54816;BME280;40715;55.752;37.884;2024-01-06T09:30:11;98511.72;;;30.45;17.95
54816;BME280;40715;55.752;37.884;2024-01-06T09:32:38;98506.81;;;30.55;17.94
54816;BME280;40715;55.752;37.884;2024-01-06T09:35:05;98499.56;;;30.62;17.66
54816;BME280;40715;55.752;37.884;2024-01-06T09:37:33;98503.69;;;30.73;17.87
54816;BME280;40715;55.752;37.884;2024-01-06T09:40:00;98498.06;;;30.75;17.77
54816;BME280;40715;55.752;37.884;2024-01-06T09:42:27;98509.97;;;30.74;17.41
54816;BME280;40715;55.752;37.884;2024-01-06T09:44:54;98501.16;;;30.72;17.50
54816;BME280;40715;55.752;37.884;2024-01-06T09:47:22;98495.19;;;30.61;17.62
54816;BME280;40715;55.752;37.884;2024-01-06T09:49:49;98499.72;;;30.54;17.64
54816;BME280;40715;55.752;37.884;2024-01-06T09:52:21;98505.63;;;30.43;17.87
54816;BME280;40715;55.752;37.884;2024-01-06T09:54:53;98489.97;;;30.30;17.95
54816;BME280;40715;55.752;37.884;2024-01-06T09:57:21;98493.16;;;30.19;17.87
54816;BME280;40715;55.752;37.884;2024-01-06T09:59:49;98489.88;;;30.08;18.15
54816;BME280;40715;55.752;37.884;2024-01-06T10:02:17;98490.63;;;30.02;18.28
54816;BME280;40715;55.752;37.884;2024-01-06T10:04:44;98489.06;;;29.93;18.52
54816;BME280;40715;55.752;37.884;2024-01-06T10:07:12;98490.44;;;29.89;18.58
54816;BME280;40715;55.752;37.884;2024-01-06T10:09:41;98484.72;;;29.84;18.56
54816;BME280;40715;55.752;37.884;2024-01-06T10:12:09;98492.22;;;29.97;18.87
54816;BME280;40715;55.752;37.884;2024-01-06T10:14:37;98483.41;;;30.09;18.76
54816;BME280;40715;55.752;37.884;2024-01-06T10:17:08;98482.84;;;30.29;18.67
54816;BME280;40715;55.752;37.884;2024-01-06T10:19:35;98482.47;;;30.47;18.38
54816;BME280;40715;55.752;37.884;2024-01-06T10:22:05;98478.91;;;30.61;18.57
54816;BME280;40715;55.752;37.884;2024-01-06T10:24:32;98482.38;;;30.77;18.22
54816;BME280;40715;55.752;37.884;2024-01-06T10:26:59;98477.75;;;30.92;18.25
54816;BME280;40715;55.752;37.884;2024-01-06T10:29:27;98476.44;;;31.03;18.44
54816;BME280;40715;55.752;37.884;2024-01-06T10:31:54;98474.16;;;31.07;18.37
54816;BME280;40715;55.752;37.884;2024-01-06T10:34:23;98472.69;;;31.04;18.32
54816;BME280;40715;55.752;37.884;2024-01-06T10:36:51;98466.09;;;30.98;18.19
54816;BME280;40715;55.752;37.884;2024-01-06T10:39:21;98462.59;;;30.83;18.35
54816;BME280;40715;55.752;37.884;2024-01-06T10:41:49;98464.25;;;30.62;18.27
54816;BME280;40715;55.752;37.884;2024-01-06T10:44:16;98466.06;;;30.40;18.30
54816;BME280;40715;55.752;37.884;2024-01-06T10:46:43;98460.19;;;30.22;18.52
54816;BME280;40715;55.752;37.884;2024-01-06T10:49:11;98461.41;;;30.04;18.90
54816;BME280;40715;55.752;37.884;2024-01-06T10:51:39;98455.34;;;29.87;19.05
54816;BME280;40715;55.752;37.884;2024-01-06T10:54:08;98454.38;;;29.80;19.38
54816;BME280;40715;55.752;37.884;2024-01-06T10:56:37;98449.25;;;29.85;19.27
54816;BME280;40715;55.752;37.884;2024-01-06T10:59:08;98444.56;;;29.94;19.17
54816;BME280;40715;55.752;37.884;2024-01-06T11:01:39;98453.56;;;29.94;18.86
54816;BME280;40715;55.752;37.884;2024-01-06T11:04:07;98456.72;;;29.98;19.04
54816;BME280;40715;55.752;37.884;2024-01-06T11:06:35;98450.09;;;30.01;18.78
54816;BME280;40715;55.752;37.884;2024-01-06T11:09:13;98453.63;;;30.01;18.91
54816;BME280;40715;55.752;37.884;2024-01-06T11:11:41;98458.22;;;30.01;18.82
54816;BME280;40715;55.752;37.884;2024-01-06T11:14:25;98458.16;;;30.09;18.61
54816;BME280;40715;55.752;37.884;2024-01-06T11:16:53;98454.31;;;30.03;18.97
54816;BME280;40715;55.752;37.884;2024-01-06T11:22:27;98459.81;;;30.10;18.54
54816;BME280;40715;55.752;37.884;2024-01-06T11:25:07;98456.53;;;30.00;18.59
54816;BME280;40715;55.752;37.884;2024-01-06T11:27:35;98450.84;;;29.94;18.56
54816;BME280;40715;55.752;37.884;2024-01-06T11:30:04;98451.69;;;29.95;18.66
54816;BME280;40715;55.752;37.884;2024-01-06T11:32:33;98444.84;;;29.99;18.61
54816;BME280;40715;55.752;37.884;2024-01-06T11:35:10;98449.44;;;29.99;18.65
54816;BME280;40715;55.752;37.884;2024-01-06T11:43:02;98446.88;;;29.97;18.44
54816;BME280;40715;55.752;37.884;2024-01-06T11:45:30;98445.97;;;29.90;18.48
54816;BME280;40715;55.752;37.884;2024-01-06T11:48:03;98452.78;;;29.86;18.34
54816;BME280;40715;55.752;37.884;2024-01-06T11:50:33;98450.94;;;29.86;18.67
54816;BME280;40715;55.752;37.884;2024-01-06T11:53:01;98451.97;;;29.85;18.42
54816;BME280;40715;55.752;37.884;2024-01-06T11:55:29;98457.19;;;29.87;18.67
54816;BME280;40715;55.752;37.884;2024-01-06T11:57:59;98457.00;;;29.88;18.63
54816;BME280;40715;55.752;37.884;2024-01-06T12:00:30;98463.13;;;29.90;18.66
54816;BME280;40715;55.752;37.884;2024-01-06T12:03:00;98461.59;;;29.88;18.80
54816;BME280;40715;55.752;37.884;2024-01-06T12:05:28;98464.63;;;29.93;18.52
54816;BME280;40715;55.752;37.884;2024-01-06T12:07:59;98467.34;;;29.93;18.36
54816;BME280;40715;55.752;37.884;2024-01-06T12:10:28;98469.19;;;29.92;18.90
54816;BME280;40715;55.752;37.884;2024-01-06T12:15:26;98478.84;;;29.95;18.82
54816;BME280;40715;55.752;37.884;2024-01-06T12:17:54;98486.78;;;29.97;18.49
54816;BME280;40715;55.752;37.884;2024-01-06T12:20:21;98484.91;;;29.97;18.65
54816;BME280;40715;55.752;37.884;2024-01-06T12:22:53;98487.28;;;30.00;18.64
54816;BME280;40715;55.752;37.884;2024-01-06T12:25:21;98484.38;;;30.02;18.19
54816;BME280;40715;55.752;37.884;2024-01-06T12:27:49;98492.50;;;30.02;18.60
54816;BME280;40715;55.752;37.884;2024-01-06T12:30:18;98482.88;;;29.99;18.77
54816;BME280;40715;55.752;37.884;2024-01-06T12:32:47;98483.06;;;29.98;18.48
54816;BME280;40715;55.752;37.884;2024-01-06T12:35:16;98491.47;;;30.03;19.15
54816;BME280;40715;55.752;37.884;2024-01-06T12:37:43;98487.53;;;30.20;19.16
54816;BME280;40715;55.752;37.884;2024-01-06T12:40:12;98492.38;;;30.40;19.24
54816;BME280;40715;55.752;37.884;2024-01-06T12:42:40;98487.97;;;30.54;19.00
54816;BME280;40715;55.752;37.884;2024-01-06T12:45:07;98493.22;;;30.55;19.19
54816;BME280;40715;55.752;37.884;2024-01-06T12:47:34;98495.31;;;30.53;19.04
54816;BME280;40715;55.752;37.884;2024-01-06T12:50:02;98494.00;;;30.49;19.42
54816;BME280;40715;55.752;37.884;2024-01-06T12:52:30;98486.44;;;30.44;19.54
54816;BME280;40715;55.752;37.884;2024-01-06T12:54:57;98488.09;;;30.45;19.68
54816;BME280;40715;55.752;37.884;2024-01-06T12:57:23;98491.84;;;30.44;19.65
54816;BME280;40715;55.752;37.884;2024-01-06T12:59:50;98493.53;;;30.45;19.83
54816;BME280;40715;55.752;37.884;2024-01-06T13:02:17;98494.56;;;30.44;19.96